sensor_id;sensor_type;location;lat;lon;timestamp;P1;durP1;ratioP1;P2;durP2;ratioP2
79712;SDS011;69206;51.420;5.400;2023-07-20T00:02:22;14.77;;;7.38;;
79712;SDS011;69206;51.420;5.400;2023-07-20T00:04:47;13.38;;;6.78;;
79712;SDS011;69206;51.420;5.400;2023-07-20T00:07:12;15.63;;;7.43;;
79712;SDS011;69206;51.420;5.400;2023-07-20T00:09:38;15.57;;;7.43;;
79712;SDS011;69206;51.420;5.400;2023-07-20T00:12:03;16.42;;;7.60;;
79712;SDS011;69206;51.420;5.400;2023-07-20T00:14:29;15.23;;;7.65;;
79712;SDS011;69206;51.420;5.400;2023-07-20T00:16:55;16.17;;;7.68;;
79712;SDS011;69206;51.420;5.400;2023-07-20T00:19:24;19.02;;;7.40;;
79712;SDS011;69206;51.420;5.400;2023-07-20T00:21:51;18.55;;;7.80;;
79712;SDS011;69206;51.420;5.400;2023-07-20T00:24:17;14.13;;;7.45;;
79712;SDS011;69206;51.420;5.400;2023-07-20T00:26:43;12.07;;;6.95;;
79712;SDS011;69206;51.420;5.400;2023-07-20T00:29:09;11.88;;;7.45;;
79712;SDS011;69206;51.420;5.400;2023-07-20T00:31:34;14.18;;;7.50;;
79712;SDS011;69206;51.420;5.400;2023-07-20T00:34:02;15.80;;;7.35;;
79712;SDS011;69206;51.420;5.400;2023-07-20T00:36:28;12.88;;;7.40;;
79712;SDS011;69206;51.420;5.400;2023-07-20T00:38:53;17.15;;;7.88;;
79712;SDS011;69206;51.420;5.400;2023-07-20T00:41:18;19.55;;;8.00;;
79712;SDS011;69206;51.420;5.400;2023-07-20T00:43:43;17.48;;;7.18;;
79712;SDS011;69206;51.420;5.400;2023-07-20T00:46:09;17.98;;;7.25;;
79712;SDS011;69206;51.420;5.400;2023-07-20T00:48:34;18.70;;;7.50;;
79712;SDS011;69206;51.420;5.400;2023-07-20T00:51:00;16.48;;;8.77;;
79712;SDS011;69206;51.420;5.400;2023-07-20T00:53:26;21.05;;;7.32;;
79712;SDS011;69206;51.420;5.400;2023-07-20T00:55:52;15.13;;;7.97;;
79712;SDS011;69206;51.420;5.400;2023-07-20T00:58:20;18.42;;;8.90;;
79712;SDS011;69206;51.420;5.400;2023-07-20T01:00:46;19.85;;;7.82;;
79712;SDS011;69206;51.420;5.400;2023-07-20T01:03:14;19.75;;;8.15;;
79712;SDS011;69206;51.420;5.400;2023-07-20T01:11:17;15.05;;;7.60;;
79712;SDS011;69206;51.420;5.400;2023-07-20T01:13:52;13.63;;;7.45;;
79712;SDS011;69206;51.420;5.400;2023-07-20T01:16:18;21.13;;;8.80;;
79712;SDS011;69206;51.420;5.400;2023-07-20T01:18:44;15.40;;;8.02;;
79712;SDS011;69206;51.420;5.400;2023-07-20T01:21:09;20.20;;;9.15;;
79712;SDS011;69206;51.420;5.400;2023-07-20T01:24:05;16.40;;;8.30;;
79712;SDS011;69206;51.420;5.400;2023-07-20T01:29:33;20.83;;;8.77;;
79712;SDS011;69206;51.420;5.400;2023-07-20T01:32:12;17.35;;;7.85;;
79712;SDS011;69206;51.420;5.400;2023-07-20T01:34:39;20.50;;;8.45;;
79712;SDS011;69206;51.420;5.400;2023-07-20T01:37:06;16.20;;;8.30;;
79712;SDS011;69206;51.420;5.400;2023-07-20T01:39:32;14.82;;;8.60;;
79712;SDS011;69206;51.420;5.400;2023-07-20T01:41:58;22.75;;;9.05;;
79712;SDS011;69206;51.420;5.400;2023-07-20T01:44:23;17.08;;;9.07;;
79712;SDS011;69206;51.420;5.400;2023-07-20T01:46:49;19.35;;;8.85;;
79712;SDS011;69206;51.420;5.400;2023-07-20T01:49:14;19.58;;;9.10;;
79712;SDS011;69206;51.420;5.400;2023-07-20T01:51:40;18.58;;;8.38;;
79712;SDS011;69206;51.420;5.400;2023-07-20T01:54:06;16.35;;;8.48;;
79712;SDS011;69206;51.420;5.400;2023-07-20T01:56:31;19.40;;;8.85;;
79712;SDS011;69206;51.420;5.400;2023-07-20T01:58:56;22.02;;;9.38;;
79712;SDS011;69206;51.420;5.400;2023-07-20T02:01:21;18.63;;;8.32;;
79712;SDS011;69206;51.420;5.400;2023-07-20T02:03:47;16.48;;;7.97;;
79712;SDS011;69206;51.420;5.400;2023-07-20T02:06:12;18.85;;;8.95;;
79712;SDS011;69206;51.420;5.400;2023-07-20T02:08:37;17.90;;;8.40;;
79712;SDS011;69206;51.420;5.400;2023-07-20T02:11:03;16.45;;;8.63;;
79712;SDS011;69206;51.420;5.400;2023-07-20T02:13:29;12.70;;;8.73;;
79712;SDS011;69206;51.420;5.400;2023-07-20T02:15:54;16.02;;;8.75;;
79712;SDS011;69206;51.420;5.400;2023-07-20T02:18:20;19.33;;;8.10;;
79712;SDS011;69206;51.420;5.400;2023-07-20T02:20:45;18.08;;;8.80;;
79712;SDS011;69206;51.420;5.400;2023-07-20T02:23:11;18.63;;;8.27;;
79712;SDS011;69206;51.420;5.400;2023-07-20T02:25:36;18.60;;;8.82;;
79712;SDS011;69206;51.420;5.400;2023-07-20T02:28:02;17.67;;;9.43;;
79712;SDS011;69206;51.420;5.400;2023-07-20T02:30:29;30.58;;;10.30;;
79712;SDS011;69206;51.420;5.400;2023-07-20T02:32:54;18.13;;;9.93;;
79712;SDS011;69206;51.420;5.400;2023-07-20T02:35:20;19.60;;;9.68;;
79712;SDS011;69206;51.420;5.400;2023-07-20T02:37:45;19.90;;;9.38;;
79712;SDS011;69206;51.420;5.400;2023-07-20T02:40:11;23.60;;;9.88;;
79712;SDS011;69206;51.420;5.400;2023-07-20T02:42:37;20.92;;;9.48;;
79712;SDS011;69206;51.420;5.400;2023-07-20T02:45:02;19.38;;;10.32;;
79712;SDS011;69206;51.420;5.400;2023-07-20T02:47:29;22.52;;;11.07;;
79712;SDS011;69206;51.420;5.400;2023-07-20T02:49:54;20.45;;;10.90;;
79712;SDS011;69206;51.420;5.400;2023-07-20T02:52:20;25.58;;;11.68;;
79712;SDS011;69206;51.420;5.400;2023-07-20T02:54:45;23.00;;;11.85;;
79712;SDS011;69206;51.420;5.400;2023-07-20T02:57:10;27.20;;;12.40;;
79712;SDS011;69206;51.420;5.400;2023-07-20T02:59:36;28.38;;;13.23;;
79712;SDS011;69206;51.420;5.400;2023-07-20T03:02:01;23.13;;;12.00;;
79712;SDS011;69206;51.420;5.400;2023-07-20T03:04:26;25.88;;;12.68;;
79712;SDS011;69206;51.420;5.400;2023-07-20T03:06:52;28.95;;;12.38;;
79712;SDS011;69206;51.420;5.400;2023-07-20T03:09:18;23.77;;;13.70;;
79712;SDS011;69206;51.420;5.400;2023-07-20T03:11:44;29.23;;;13.52;;
79712;SDS011;69206;51.420;5.400;2023-07-20T03:14:09;26.40;;;13.95;;
79712;SDS011;69206;51.420;5.400;2023-07-20T03:16:35;27.70;;;13.88;;
79712;SDS011;69206;51.420;5.400;2023-07-20T03:19:01;29.58;;;13.68;;
79712;SDS011;69206;51.420;5.400;2023-07-20T03:21:27;26.40;;;14.73;;
79712;SDS011;69206;51.420;5.400;2023-07-20T03:23:52;26.60;;;15.00;;
79712;SDS011;69206;51.420;5.400;2023-07-20T03:26:19;26.63;;;14.55;;
79712;SDS011;69206;51.420;5.400;2023-07-20T03:28:44;35.67;;;15.85;;
79712;SDS011;69206;51.420;5.400;2023-07-20T03:31:09;27.92;;;15.77;;
79712;SDS011;69206;51.420;5.400;2023-07-20T03:33:35;27.73;;;14.88;;
79712;SDS011;69206;51.420;5.400;2023-07-20T03:36:01;33.25;;;16.40;;
79712;SDS011;69206;51.420;5.400;2023-07-20T03:38:27;30.15;;;15.40;;
79712;SDS011;69206;51.420;5.400;2023-07-20T03:40:53;29.02;;;16.25;;
79712;SDS011;69206;51.420;5.400;2023-07-20T03:43:19;32.55;;;15.73;;
79712;SDS011;69206;51.420;5.400;2023-07-20T03:45:45;29.65;;;16.15;;
79712;SDS011;69206;51.420;5.400;2023-07-20T03:48:12;28.30;;;16.40;;
79712;SDS011;69206;51.420;5.400;2023-07-20T03:50:38;34.58;;;16.75;;
79712;SDS011;69206;51.420;5.400;2023-07-20T03:53:03;34.92;;;16.40;;
79712;SDS011;69206;51.420;5.400;2023-07-20T03:55:28;33.30;;;16.23;;
79712;SDS011;69206;51.420;5.400;2023-07-20T03:57:54;30.38;;;17.02;;
79712;SDS011;69206;51.420;5.400;2023-07-20T04:00:19;30.15;;;15.38;;
79712;SDS011;69206;51.420;5.400;2023-07-20T04:02:45;29.48;;;16.02;;
79712;SDS011;69206;51.420;5.400;2023-07-20T04:05:10;27.50;;;16.65;;
79712;SDS011;69206;51.420;5.400;2023-07-20T04:07:38;27.73;;;15.82;;
79712;SDS011;69206;51.420;5.400;2023-07-20T04:10:03;32.97;;;17.52;;
79712;SDS011;69206;51.420;5.400;2023-07-20T04:12:29;34.38;;;17.35;;
79712;SDS011;69206;51.420;5.400;2023-07-20T04:14:54;28.08;;;16.30;;
79712;SDS011;69206;51.420;5.400;2023-07-20T04:17:19;28.27;;;15.55;;
79712;SDS011;69206;51.420;5.400;2023-07-20T04:19:45;25.52;;;14.02;;
79712;SDS011;69206;51.420;5.400;2023-07-20T04:22:10;21.48;;;13.25;;
79712;SDS011;69206;51.420;5.400;2023-07-20T04:24:38;23.42;;;13.50;;
79712;SDS011;69206;51.420;5.400;2023-07-20T04:27:03;24.95;;;13.43;;
79712;SDS011;69206;51.420;5.400;2023-07-20T04:29:29;20.20;;;12.13;;
79712;SDS011;69206;51.420;5.400;2023-07-20T04:31:54;21.27;;;11.85;;
79712;SDS011;69206;51.420;5.400;2023-07-20T04:34:19;18.65;;;11.27;;
79712;SDS011;69206;51.420;5.400;2023-07-20T04:36:45;18.63;;;10.60;;
79712;SDS011;69206;51.420;5.400;2023-07-20T04:39:11;17.67;;;10.15;;
79712;SDS011;69206;51.420;5.400;2023-07-20T04:41:37;14.85;;;9.20;;
79712;SDS011;69206;51.420;5.400;2023-07-20T04:44:02;13.65;;;7.55;;
79712;SDS011;69206;51.420;5.400;2023-07-20T04:46:27;11.40;;;7.20;;
79712;SDS011;69206;51.420;5.400;2023-07-20T04:48:53;12.63;;;6.82;;
79712;SDS011;69206;51.420;5.400;2023-07-20T04:51:18;10.20;;;7.15;;
79712;SDS011;69206;51.420;5.400;2023-07-20T04:53:46;12.48;;;7.70;;
79712;SDS011;69206;51.420;5.400;2023-07-20T04:56:12;13.93;;;7.55;;
79712;SDS011;69206;51.420;5.400;2023-07-20T04:58:37;14.18;;;7.68;;
79712;SDS011;69206;51.420;5.400;2023-07-20T05:01:03;11.13;;;6.93;;
79712;SDS011;69206;51.420;5.400;2023-07-20T05:03:28;10.20;;;6.40;;
79712;SDS011;69206;51.420;5.400;2023-07-20T05:05:54;13.50;;;6.82;;
79712;SDS011;69206;51.420;5.400;2023-07-20T05:08:19;9.05;;;6.43;;
79712;SDS011;69206;51.420;5.400;2023-07-20T05:10:47;10.02;;;6.13;;
79712;SDS011;69206;51.420;5.400;2023-07-20T05:13:12;11.05;;;6.55;;
79712;SDS011;69206;51.420;5.400;2023-07-20T05:15:38;8.93;;;6.05;;
79712;SDS011;69206;51.420;5.400;2023-07-20T05:18:03;18.35;;;6.32;;
79712;SDS011;69206;51.420;5.400;2023-07-20T05:20:28;9.15;;;6.18;;
79712;SDS011;69206;51.420;5.400;2023-07-20T05:22:54;8.70;;;6.00;;
79712;SDS011;69206;51.420;5.400;2023-07-20T05:25:19;10.15;;;6.07;;
79712;SDS011;69206;51.420;5.400;2023-07-20T05:27:47;11.75;;;7.28;;
79712;SDS011;69206;51.420;5.400;2023-07-20T05:30:13;10.68;;;7.25;;
79712;SDS011;69206;51.420;5.400;2023-07-20T05:32:38;13.32;;;7.47;;
79712;SDS011;69206;51.420;5.400;2023-07-20T05:35:04;13.43;;;8.23;;
79712;SDS011;69206;51.420;5.400;2023-07-20T05:37:30;10.30;;;6.63;;
79712;SDS011;69206;51.420;5.400;2023-07-20T05:39:55;10.60;;;6.50;;
79712;SDS011;69206;51.420;5.400;2023-07-20T05:42:21;8.43;;;5.65;;
79712;SDS011;69206;51.420;5.400;2023-07-20T05:44:46;8.20;;;6.05;;
79712;SDS011;69206;51.420;5.400;2023-07-20T05:47:17;10.38;;;6.72;;
79712;SDS011;69206;51.420;5.400;2023-07-20T05:49:43;9.45;;;6.90;;
79712;SDS011;69206;51.420;5.400;2023-07-20T05:52:15;11.00;;;6.82;;
79712;SDS011;69206;51.420;5.400;2023-07-20T05:54:41;10.70;;;6.30;;
79712;SDS011;69206;51.420;5.400;2023-07-20T05:57:06;10.77;;;7.00;;
79712;SDS011;69206;51.420;5.400;2023-07-20T05:59:32;12.68;;;7.28;;
79712;SDS011;69206;51.420;5.400;2023-07-20T06:01:57;14.85;;;7.57;;
79712;SDS011;69206;51.420;5.400;2023-07-20T06:04:23;11.52;;;7.47;;
79712;SDS011;69206;51.420;5.400;2023-07-20T06:06:49;10.70;;;7.05;;
79712;SDS011;69206;51.420;5.400;2023-07-20T06:09:14;10.88;;;7.97;;
79712;SDS011;69206;51.420;5.400;2023-07-20T06:11:39;10.77;;;6.95;;
79712;SDS011;69206;51.420;5.400;2023-07-20T06:14:06;8.90;;;5.78;;
79712;SDS011;69206;51.420;5.400;2023-07-20T06:16:31;10.02;;;6.00;;
79712;SDS011;69206;51.420;5.400;2023-07-20T06:18:58;15.07;;;8.02;;
79712;SDS011;69206;51.420;5.400;2023-07-20T06:21:25;12.75;;;8.38;;
79712;SDS011;69206;51.420;5.400;2023-07-20T06:23:50;11.18;;;7.85;;
79712;SDS011;69206;51.420;5.400;2023-07-20T06:26:16;9.73;;;7.07;;
79712;SDS011;69206;51.420;5.400;2023-07-20T06:28:41;11.30;;;6.78;;
79712;SDS011;69206;51.420;5.400;2023-07-20T06:31:06;8.02;;;6.65;;
79712;SDS011;69206;51.420;5.400;2023-07-20T06:33:33;10.63;;;6.90;;
79712;SDS011;69206;51.420;5.400;2023-07-20T06:35:59;16.55;;;7.60;;
79712;SDS011;69206;51.420;5.400;2023-07-20T06:38:25;7.18;;;5.72;;
79712;SDS011;69206;51.420;5.400;2023-07-20T06:40:50;10.05;;;5.82;;
79712;SDS011;69206;51.420;5.400;2023-07-20T06:43:16;7.25;;;5.53;;
79712;SDS011;69206;51.420;5.400;2023-07-20T06:45:42;7.60;;;5.15;;
79712;SDS011;69206;51.420;5.400;2023-07-20T06:48:10;9.18;;;5.47;;
79712;SDS011;69206;51.420;5.400;2023-07-20T06:50:35;6.68;;;3.78;;
79712;SDS011;69206;51.420;5.400;2023-07-20T06:53:01;5.15;;;3.35;;
79712;SDS011;69206;51.420;5.400;2023-07-20T06:55:29;5.07;;;2.95;;
79712;SDS011;69206;51.420;5.400;2023-07-20T06:57:54;4.85;;;2.70;;
79712;SDS011;69206;51.420;5.400;2023-07-20T07:00:20;6.55;;;3.50;;
79712;SDS011;69206;51.420;5.400;2023-07-20T07:02:45;2.88;;;2.13;;
79712;SDS011;69206;51.420;5.400;2023-07-20T07:05:10;4.78;;;2.90;;
79712;SDS011;69206;51.420;5.400;2023-07-20T07:07:36;4.18;;;2.35;;
79712;SDS011;69206;51.420;5.400;2023-07-20T07:10:01;3.50;;;1.80;;
79712;SDS011;69206;51.420;5.400;2023-07-20T07:12:29;2.25;;;1.40;;
79712;SDS011;69206;51.420;5.400;2023-07-20T07:14:55;4.47;;;1.20;;
79712;SDS011;69206;51.420;5.400;2023-07-20T07:17:21;1.90;;;1.00;;
79712;SDS011;69206;51.420;5.400;2023-07-20T07:19:46;4.07;;;0.93;;
79712;SDS011;69206;51.420;5.400;2023-07-20T07:22:12;1.52;;;0.80;;
79712;SDS011;69206;51.420;5.400;2023-07-20T07:24:38;2.50;;;1.25;;
79712;SDS011;69206;51.420;5.400;2023-07-20T07:27:03;2.40;;;1.10;;
79712;SDS011;69206;51.420;5.400;2023-07-20T07:29:29;1.63;;;1.27;;
79712;SDS011;69206;51.420;5.400;2023-07-20T07:31:54;2.00;;;1.10;;
79712;SDS011;69206;51.420;5.400;2023-07-20T07:34:19;1.17;;;1.08;;
79712;SDS011;69206;51.420;5.400;2023-07-20T07:36:45;1.58;;;1.25;;
79712;SDS011;69206;51.420;5.400;2023-07-20T07:39:10;2.38;;;1.00;;
79712;SDS011;69206;51.420;5.400;2023-07-20T07:41:36;2.83;;;1.50;;
79712;SDS011;69206;51.420;5.400;2023-07-20T07:44:01;2.10;;;1.30;;
79712;SDS011;69206;51.420;5.400;2023-07-20T07:46:26;2.22;;;1.45;;
79712;SDS011;69206;51.420;5.400;2023-07-20T07:48:52;2.08;;;1.20;;
79712;SDS011;69206;51.420;5.400;2023-07-20T07:51:18;2.30;;;1.58;;
79712;SDS011;69206;51.420;5.400;2023-07-20T07:53:44;2.28;;;1.40;;
79712;SDS011;69206;51.420;5.400;2023-07-20T07:56:09;1.38;;;1.13;;
79712;SDS011;69206;51.420;5.400;2023-07-20T07:58:35;3.08;;;1.20;;
79712;SDS011;69206;51.420;5.400;2023-07-20T08:01:01;3.58;;;1.30;;
79712;SDS011;69206;51.420;5.400;2023-07-20T08:03:26;2.38;;;1.20;;
79712;SDS011;69206;51.420;5.400;2023-07-20T08:05:55;2.83;;;1.10;;
79712;SDS011;69206;51.420;5.400;2023-07-20T08:08:22;3.42;;;2.60;;
79712;SDS011;69206;51.420;5.400;2023-07-20T08:10:48;2.70;;;2.25;;
79712;SDS011;69206;51.420;5.400;2023-07-20T08:13:13;3.20;;;1.77;;
79712;SDS011;69206;51.420;5.400;2023-07-20T08:15:39;4.53;;;1.80;;
79712;SDS011;69206;51.420;5.400;2023-07-20T08:18:05;3.78;;;1.60;;
79712;SDS011;69206;51.420;5.400;2023-07-20T08:20:30;2.30;;;1.25;;
79712;SDS011;69206;51.420;5.400;2023-07-20T08:22:57;2.13;;;1.23;;
79712;SDS011;69206;51.420;5.400;2023-07-20T08:25:23;4.15;;;1.65;;
79712;SDS011;69206;51.420;5.400;2023-07-20T08:27:48;2.80;;;1.05;;
79712;SDS011;69206;51.420;5.400;2023-07-20T08:30:14;1.67;;;0.80;;
79712;SDS011;69206;51.420;5.400;2023-07-20T08:32:39;1.25;;;0.90;;
79712;SDS011;69206;51.420;5.400;2023-07-20T08:35:05;1.55;;;0.88;;
79712;SDS011;69206;51.420;5.400;2023-07-20T08:37:31;2.42;;;0.63;;
79712;SDS011;69206;51.420;5.400;2023-07-20T08:39:56;7.45;;;1.45;;
79712;SDS011;69206;51.420;5.400;2023-07-20T08:42:23;1.15;;;1.02;;
79712;SDS011;69206;51.420;5.400;2023-07-20T08:44:49;7.00;;;1.80;;
79712;SDS011;69206;51.420;5.400;2023-07-20T08:47:17;4.00;;;1.50;;
79712;SDS011;69206;51.420;5.400;2023-07-20T08:49:45;1.40;;;1.10;;
79712;SDS011;69206;51.420;5.400;2023-07-20T08:52:13;3.28;;;0.90;;
79712;SDS011;69206;51.420;5.400;2023-07-20T08:54:39;2.22;;;1.40;;
79712;SDS011;69206;51.420;5.400;2023-07-20T08:57:04;3.85;;;1.60;;
79712;SDS011;69206;51.420;5.400;2023-07-20T08:59:31;2.17;;;1.48;;
79712;SDS011;69206;51.420;5.400;2023-07-20T09:01:58;2.10;;;1.17;;
79712;SDS011;69206;51.420;5.400;2023-07-20T09:04:24;5.47;;;1.67;;
79712;SDS011;69206;51.420;5.400;2023-07-20T09:06:49;1.92;;;1.10;;
79712;SDS011;69206;51.420;5.400;2023-07-20T09:09:15;4.65;;;1.27;;
79712;SDS011;69206;51.420;5.400;2023-07-20T09:11:41;4.32;;;1.40;;
79712;SDS011;69206;51.420;5.400;2023-07-20T09:14:07;2.58;;;1.00;;
79712;SDS011;69206;51.420;5.400;2023-07-20T09:16:49;1.38;;;1.23;;
79712;SDS011;69206;51.420;5.400;2023-07-20T09:19:16;2.83;;;0.80;;
79712;SDS011;69206;51.420;5.400;2023-07-20T09:21:48;1.98;;;0.90;;
79712;SDS011;69206;51.420;5.400;2023-07-20T09:24:16;4.25;;;0.90;;
79712;SDS011;69206;51.420;5.400;2023-07-20T09:26:43;2.72;;;0.88;;
79712;SDS011;69206;51.420;5.400;2023-07-20T09:29:13;0.80;;;0.80;;
79712;SDS011;69206;51.420;5.400;2023-07-20T09:34:07;4.72;;;0.95;;
79712;SDS011;69206;51.420;5.400;2023-07-20T09:36:35;0.63;;;0.63;;
79712;SDS011;69206;51.420;5.400;2023-07-20T09:39:03;1.55;;;0.80;;
79712;SDS011;69206;51.420;5.400;2023-07-20T09:41:41;1.27;;;0.80;;
79712;SDS011;69206;51.420;5.400;2023-07-20T09:44:07;1.05;;;1.00;;
79712;SDS011;69206;51.420;5.400;2023-07-20T09:46:48;3.03;;;0.95;;
79712;SDS011;69206;51.420;5.400;2023-07-20T09:49:14;2.63;;;0.70;;
79712;SDS011;69206;51.420;5.400;2023-07-20T09:51:39;0.95;;;0.82;;
79712;SDS011;69206;51.420;5.400;2023-07-20T09:54:07;1.17;;;0.93;;
79712;SDS011;69206;51.420;5.400;2023-07-20T09:56:32;0.98;;;0.98;;
79712;SDS011;69206;51.420;5.400;2023-07-20T09:58:58;0.80;;;0.70;;
79712;SDS011;69206;51.420;5.400;2023-07-20T10:01:24;2.55;;;1.20;;
79712;SDS011;69206;51.420;5.400;2023-07-20T10:03:53;2.13;;;1.00;;
79712;SDS011;69206;51.420;5.400;2023-07-20T10:06:23;3.47;;;1.10;;
79712;SDS011;69206;51.420;5.400;2023-07-20T10:08:52;2.70;;;1.17;;
79712;SDS011;69206;51.420;5.400;2023-07-20T10:11:18;3.45;;;0.90;;
79712;SDS011;69206;51.420;5.400;2023-07-20T10:13:46;2.53;;;0.77;;
79712;SDS011;69206;51.420;5.400;2023-07-20T10:16:21;1.17;;;1.00;;
79712;SDS011;69206;51.420;5.400;2023-07-20T10:18:51;0.88;;;0.88;;
79712;SDS011;69206;51.420;5.400;2023-07-20T10:21:24;1.98;;;1.08;;
79712;SDS011;69206;51.420;5.400;2023-07-20T10:23:50;1.58;;;0.90;;
79712;SDS011;69206;51.420;5.400;2023-07-20T10:26:16;1.42;;;1.10;;
79712;SDS011;69206;51.420;5.400;2023-07-20T10:28:41;2.03;;;0.90;;
79712;SDS011;69206;51.420;5.400;2023-07-20T10:31:08;1.15;;;0.80;;
79712;SDS011;69206;51.420;5.400;2023-07-20T10:33:36;3.85;;;1.15;;
79712;SDS011;69206;51.420;5.400;2023-07-20T10:36:05;2.45;;;0.90;;
79712;SDS011;69206;51.420;5.400;2023-07-20T10:41:18;1.90;;;1.35;;
79712;SDS011;69206;51.420;5.400;2023-07-20T10:43:46;1.17;;;1.00;;
79712;SDS011;69206;51.420;5.400;2023-07-20T10:46:13;4.97;;;1.00;;
79712;SDS011;69206;51.420;5.400;2023-07-20T10:51:24;3.45;;;1.10;;
79712;SDS011;69206;51.420;5.400;2023-07-20T10:53:50;2.58;;;1.42;;
79712;SDS011;69206;51.420;5.400;2023-07-20T10:56:20;2.42;;;1.00;;
79712;SDS011;69206;51.420;5.400;2023-07-20T10:58:48;1.52;;;1.08;;
79712;SDS011;69206;51.420;5.400;2023-07-20T11:01:17;1.40;;;1.00;;
79712;SDS011;69206;51.420;5.400;2023-07-20T11:03:43;1.15;;;1.05;;
79712;SDS011;69206;51.420;5.400;2023-07-20T11:08:48;2.10;;;1.38;;
79712;SDS011;69206;51.420;5.400;2023-07-20T11:11:24;6.50;;;1.30;;
79712;SDS011;69206;51.420;5.400;2023-07-20T11:13:55;1.77;;;1.10;;
79712;SDS011;69206;51.420;5.400;2023-07-20T11:24:17;1.48;;;1.17;;
79712;SDS011;69206;51.420;5.400;2023-07-20T11:26:44;1.30;;;1.10;;
79712;SDS011;69206;51.420;5.400;2023-07-20T11:29:13;2.45;;;1.35;;
79712;SDS011;69206;51.420;5.400;2023-07-20T11:31:41;1.27;;;1.08;;
79712;SDS011;69206;51.420;5.400;2023-07-20T11:34:10;1.40;;;1.10;;
79712;SDS011;69206;51.420;5.400;2023-07-20T11:36:42;2.65;;;1.10;;
79712;SDS011;69206;51.420;5.400;2023-07-20T11:39:09;1.75;;;0.90;;
79712;SDS011;69206;51.420;5.400;2023-07-20T11:41:35;4.70;;;1.33;;
79712;SDS011;69206;51.420;5.400;2023-07-20T11:44:02;1.55;;;1.08;;
79712;SDS011;69206;51.420;5.400;2023-07-20T11:46:28;1.20;;;1.13;;
79712;SDS011;69206;51.420;5.400;2023-07-20T11:48:58;5.03;;;1.40;;
79712;SDS011;69206;51.420;5.400;2023-07-20T11:51:28;0.93;;;0.90;;
79712;SDS011;69206;51.420;5.400;2023-07-20T11:53:56;2.95;;;1.08;;
79712;SDS011;69206;51.420;5.400;2023-07-20T11:56:23;2.67;;;1.05;;
79712;SDS011;69206;51.420;5.400;2023-07-20T11:58:49;1.13;;;0.90;;
79712;SDS011;69206;51.420;5.400;2023-07-20T12:01:15;1.13;;;1.02;;
79712;SDS011;69206;51.420;5.400;2023-07-20T12:03:43;1.58;;;1.08;;
79712;SDS011;69206;51.420;5.400;2023-07-20T12:06:09;6.45;;;1.48;;
79712;SDS011;69206;51.420;5.400;2023-07-20T12:08:38;4.30;;;1.00;;
79712;SDS011;69206;51.420;5.400;2023-07-20T12:11:05;2.50;;;1.25;;
79712;SDS011;69206;51.420;5.400;2023-07-20T12:13:44;1.23;;;1.13;;
79712;SDS011;69206;51.420;5.400;2023-07-20T12:16:10;6.15;;;1.40;;
79712;SDS011;69206;51.420;5.400;2023-07-20T12:18:36;1.65;;;0.98;;
79712;SDS011;69206;51.420;5.400;2023-07-20T12:21:02;1.77;;;1.10;;
79712;SDS011;69206;51.420;5.400;2023-07-20T12:23:39;2.75;;;1.10;;
79712;SDS011;69206;51.420;5.400;2023-07-20T12:26:08;2.90;;;1.10;;
79712;SDS011;69206;51.420;5.400;2023-07-20T12:28:41;3.63;;;1.33;;
79712;SDS011;69206;51.420;5.400;2023-07-20T12:31:10;1.67;;;1.10;;
79712;SDS011;69206;51.420;5.400;2023-07-20T12:33:38;4.60;;;1.23;;
79712;SDS011;69206;51.420;5.400;2023-07-20T12:36:04;1.13;;;1.02;;
79712;SDS011;69206;51.420;5.400;2023-07-20T12:38:29;5.38;;;1.20;;
79712;SDS011;69206;51.420;5.400;2023-07-20T12:40:56;4.60;;;1.50;;
79712;SDS011;69206;51.420;5.400;2023-07-20T12:43:21;3.67;;;1.40;;
79712;SDS011;69206;51.420;5.400;2023-07-20T12:45:47;1.65;;;1.13;;
79712;SDS011;69206;51.420;5.400;2023-07-20T12:48:12;1.40;;;1.30;;
79712;SDS011;69206;51.420;5.400;2023-07-20T12:50:39;1.65;;;1.52;;
79712;SDS011;69206;51.420;5.400;2023-07-20T12:53:04;1.83;;;1.38;;
79712;SDS011;69206;51.420;5.400;2023-07-20T12:55:30;4.95;;;1.60;;
79712;SDS011;69206;51.420;5.400;2023-07-20T12:57:55;7.50;;;1.30;;
79712;SDS011;69206;51.420;5.400;2023-07-20T13:00:20;2.85;;;1.35;;
79712;SDS011;69206;51.420;5.400;2023-07-20T13:02:50;1.77;;;1.48;;
79712;SDS011;69206;51.420;5.400;2023-07-20T13:05:16;4.55;;;1.60;;
79712;SDS011;69206;51.420;5.400;2023-07-20T13:07:42;1.90;;;1.60;;
79712;SDS011;69206;51.420;5.400;2023-07-20T13:10:08;1.88;;;1.60;;
79712;SDS011;69206;51.420;5.400;2023-07-20T13:12:36;2.10;;;1.90;;
79712;SDS011;69206;51.420;5.400;2023-07-20T13:15:03;1.77;;;1.63;;
79712;SDS011;69206;51.420;5.400;2023-07-20T13:17:33;2.38;;;1.70;;
79712;SDS011;69206;51.420;5.400;2023-07-20T13:19:59;3.08;;;1.50;;
79712;SDS011;69206;51.420;5.400;2023-07-20T13:22:24;1.48;;;1.38;;
79712;SDS011;69206;51.420;5.400;2023-07-20T13:24:50;2.20;;;1.40;;
79712;SDS011;69206;51.420;5.400;2023-07-20T13:27:16;3.35;;;1.73;;
79712;SDS011;69206;51.420;5.400;2023-07-20T13:29:44;3.90;;;1.77;;
79712;SDS011;69206;51.420;5.400;2023-07-20T13:32:10;2.67;;;1.80;;
79712;SDS011;69206;51.420;5.400;2023-07-20T13:34:37;1.80;;;1.30;;
79712;SDS011;69206;51.420;5.400;2023-07-20T13:37:03;3.92;;;2.15;;
79712;SDS011;69206;51.420;5.400;2023-07-20T13:39:28;5.75;;;1.88;;
79712;SDS011;69206;51.420;5.400;2023-07-20T13:41:54;2.38;;;2.15;;
79712;SDS011;69206;51.420;5.400;2023-07-20T13:44:20;2.40;;;2.03;;
79712;SDS011;69206;51.420;5.400;2023-07-20T13:46:46;3.03;;;2.20;;
79712;SDS011;69206;51.420;5.400;2023-07-20T13:49:13;3.60;;;1.80;;
79712;SDS011;69206;51.420;5.400;2023-07-20T13:51:39;2.08;;;1.88;;
79712;SDS011;69206;51.420;5.400;2023-07-20T13:54:05;2.13;;;1.92;;
79712;SDS011;69206;51.420;5.400;2023-07-20T13:56:32;3.20;;;2.17;;
79712;SDS011;69206;51.420;5.400;2023-07-20T13:58:57;2.47;;;2.28;;
79712;SDS011;69206;51.420;5.400;2023-07-20T14:01:22;2.67;;;1.85;;
79712;SDS011;69206;51.420;5.400;2023-07-20T14:03:49;2.63;;;1.98;;
79712;SDS011;69206;51.420;5.400;2023-07-20T14:06:15;2.53;;;1.75;;
79712;SDS011;69206;51.420;5.400;2023-07-20T14:08:41;2.22;;;2.03;;
79712;SDS011;69206;51.420;5.400;2023-07-20T14:11:08;4.70;;;1.88;;
79712;SDS011;69206;51.420;5.400;2023-07-20T14:13:34;3.10;;;1.60;;
79712;SDS011;69206;51.420;5.400;2023-07-20T14:15:59;3.95;;;1.65;;
79712;SDS011;69206;51.420;5.400;2023-07-20T14:18:24;3.80;;;1.58;;
79712;SDS011;69206;51.420;5.400;2023-07-20T14:20:49;4.93;;;2.10;;
79712;SDS011;69206;51.420;5.400;2023-07-20T14:23:15;2.45;;;2.15;;
79712;SDS011;69206;51.420;5.400;2023-07-20T14:25:40;3.28;;;1.80;;
79712;SDS011;69206;51.420;5.400;2023-07-20T14:28:07;3.55;;;2.50;;
79712;SDS011;69206;51.420;5.400;2023-07-20T14:30:33;2.78;;;2.10;;
79712;SDS011;69206;51.420;5.400;2023-07-20T14:32:59;4.30;;;2.35;;
79712;SDS011;69206;51.420;5.400;2023-07-20T14:35:24;6.03;;;2.45;;
79712;SDS011;69206;51.420;5.400;2023-07-20T14:37:49;3.20;;;2.25;;
79712;SDS011;69206;51.420;5.400;2023-07-20T14:40:15;4.18;;;2.22;;
79712;SDS011;69206;51.420;5.400;2023-07-20T14:42:41;3.63;;;1.70;;
79712;SDS011;69206;51.420;5.400;2023-07-20T14:45:06;2.70;;;1.95;;
79712;SDS011;69206;51.420;5.400;2023-07-20T14:47:33;4.28;;;1.90;;
79712;SDS011;69206;51.420;5.400;2023-07-20T14:50:00;4.70;;;2.00;;
79712;SDS011;69206;51.420;5.400;2023-07-20T14:52:28;1.75;;;1.60;;
79712;SDS011;69206;51.420;5.400;2023-07-20T14:54:54;2.67;;;2.00;;
79712;SDS011;69206;51.420;5.400;2023-07-20T14:57:20;2.25;;;1.70;;
79712;SDS011;69206;51.420;5.400;2023-07-20T14:59:47;5.53;;;2.00;;
79712;SDS011;69206;51.420;5.400;2023-07-20T15:02:13;2.38;;;1.55;;
79712;SDS011;69206;51.420;5.400;2023-07-20T15:04:48;1.95;;;1.65;;